createdAt,value
2023-03-23T15:58:59.586Z,12.35
2023-03-23T16:01:28.617Z,12.37
2023-03-23T16:03:59.156Z,12.11
2023-03-23T16:06:27.907Z,12.07
2023-03-23T16:08:55.823Z,12.11
2023-03-23T16:11:23.872Z,12.09
2023-03-23T16:13:50.666Z,12.15
2023-03-23T16:16:22.288Z,12.00
2023-03-23T16:18:49.324Z,11.90
2023-03-23T16:21:15.805Z,11.99
2023-03-23T16:23:44.658Z,11.90
2023-03-23T16:26:11.124Z,11.74
2023-03-23T16:28:37.667Z,11.81
2023-03-23T16:31:04.357Z,11.87
2023-03-23T16:33:30.851Z,11.71
2023-03-23T16:35:58.334Z,11.73
2023-03-23T16:38:25.309Z,11.60
2023-03-23T16:40:52.210Z,11.66
2023-03-23T16:43:18.986Z,11.59
2023-03-23T16:45:46.719Z,11.68
2023-03-23T16:48:16.009Z,11.68
2023-03-23T16:50:43.905Z,11.59
2023-03-23T16:53:11.007Z,11.51
2023-03-23T16:55:38.506Z,11.65
2023-03-23T16:58:16.164Z,11.70
2023-03-23T17:00:47.046Z,11.45
2023-03-23T17:03:13.708Z,11.44
2023-03-23T17:05:40.837Z,11.49
2023-03-23T17:08:07.330Z,11.49
2023-03-23T17:10:34.429Z,11.48
2023-03-23T17:13:01.783Z,11.39
2023-03-23T17:15:28.547Z,11.23
2023-03-23T17:17:55.386Z,11.22
2023-03-23T17:20:23.086Z,11.20
2023-03-23T17:22:49.759Z,11.15
2023-03-23T17:25:16.359Z,11.09
2023-03-23T17:27:42.939Z,11.15
2023-03-23T17:30:11.079Z,11.21
2023-03-23T17:32:37.749Z,11.20
2023-03-23T17:35:05.977Z,11.13
2023-03-23T17:37:32.684Z,11.01
2023-03-23T17:39:59.253Z,10.97
2023-03-23T17:42:25.983Z,10.90
2023-03-23T17:44:52.543Z,10.81
2023-03-23T17:47:19.172Z,10.73
2023-03-23T17:49:46.437Z,10.78
2023-03-23T17:52:12.995Z,10.68
2023-03-23T17:54:39.444Z,10.64
2023-03-23T17:57:06.180Z,10.58
2023-03-23T17:59:32.903Z,10.46
2023-03-23T18:01:59.720Z,10.45
2023-03-23T18:04:29.074Z,10.47
2023-03-23T18:06:56.640Z,10.46
2023-03-23T18:09:24.008Z,10.37
2023-03-23T18:11:51.179Z,10.40
2023-03-23T18:14:18.378Z,10.44
2023-03-23T18:16:45.175Z,10.44
2023-03-23T18:19:11.942Z,10.40
2023-03-23T18:21:38.928Z,10.39
2023-03-23T18:24:05.677Z,10.56
2023-03-23T18:26:32.259Z,10.53
2023-03-23T18:28:58.859Z,10.40
2023-03-23T18:31:25.746Z,10.37
2023-03-23T18:33:54.823Z,10.41
2023-03-23T18:36:24.950Z,10.40
2023-03-23T18:38:54.152Z,10.29
2023-03-23T18:41:20.725Z,10.46
2023-03-23T18:43:47.711Z,10.24
2023-03-23T18:46:14.542Z,10.09
2023-03-23T18:48:41.157Z,10.16
2023-03-23T18:51:09.077Z,10.18
2023-03-23T18:53:35.615Z,10.17
2023-03-23T18:56:11.240Z,10.11
2023-03-23T18:58:38.482Z,10.08
2023-03-23T19:01:11.285Z,10.16
2023-03-23T19:03:39.463Z,9.97
2023-03-23T19:06:07.077Z,9.91
2023-03-23T19:08:34.834Z,9.99
2023-03-23T19:11:03.642Z,9.88
2023-03-23T19:13:33.852Z,9.89
2023-03-23T19:16:00.972Z,9.81
2023-03-23T19:18:28.243Z,9.76
2023-03-23T19:21:13.348Z,9.76
2023-03-23T19:23:41.556Z,9.83
2023-03-23T19:26:18.099Z,9.68
2023-03-23T19:29:21.520Z,9.64
2023-03-23T19:31:31.700Z,9.61
2023-03-23T19:33:58.509Z,9.71
2023-03-23T19:36:26.720Z,9.51
2023-03-23T19:38:57.692Z,9.60
2023-03-23T19:41:29.066Z,9.65
2023-03-23T19:43:55.614Z,9.65
2023-03-23T19:46:22.263Z,9.65
2023-03-23T19:48:49.016Z,9.58
2023-03-23T19:51:18.762Z,9.48
2023-03-23T19:53:46.393Z,9.53
2023-03-23T19:56:15.921Z,9.48
2023-03-23T19:58:42.380Z,9.46
2023-03-23T20:01:09.078Z,9.58
2023-03-23T20:03:36.469Z,9.45
2023-03-23T20:06:06.007Z,9.47
2023-03-23T20:08:33.420Z,9.43
2023-03-23T20:11:05.897Z,9.38
2023-03-23T20:13:32.883Z,9.26
2023-03-23T20:16:00.942Z,9.27
2023-03-23T20:18:29.683Z,9.37
2023-03-23T20:21:07.350Z,9.51
2023-03-23T20:23:35.565Z,9.53
2023-03-23T20:26:06.694Z,9.48
2023-03-23T20:28:33.906Z,9.45
2023-03-23T20:31:21.141Z,9.65
2023-03-23T20:34:00.716Z,9.57
2023-03-23T20:36:36.695Z,9.66
2023-03-23T20:39:08.053Z,9.65
2023-03-23T20:41:41.509Z,9.54
2023-03-23T20:44:13.727Z,9.60
2023-03-23T20:46:47.998Z,9.59
2023-03-23T20:49:15.883Z,9.65
2023-03-23T20:51:43.650Z,9.56
2023-03-23T20:54:10.722Z,9.64
2023-03-23T20:56:40.281Z,9.50
2023-03-23T20:59:06.842Z,9.69
2023-03-23T21:01:33.687Z,9.70
2023-03-23T21:04:02.949Z,9.67
2023-03-23T21:06:31.230Z,9.77
2023-03-23T21:08:57.864Z,9.84
2023-03-23T21:11:26.409Z,9.68
2023-03-23T21:13:53.290Z,9.63
2023-03-23T21:16:20.587Z,9.54
2023-03-23T21:18:47.671Z,9.57
2023-03-23T21:21:14.920Z,9.57
2023-03-23T21:23:47.084Z,9.59
2023-03-23T21:26:16.679Z,9.77
2023-03-23T21:28:44.143Z,9.66
2023-03-23T21:31:11.172Z,9.76
2023-03-23T21:33:37.846Z,9.70
2023-03-23T21:36:04.779Z,9.84
2023-03-23T21:38:31.337Z,9.79
2023-03-23T21:40:59.709Z,9.81
2023-03-23T21:43:27.477Z,9.77
2023-03-23T21:45:56.712Z,9.85
2023-03-23T21:48:25.149Z,9.96
2023-03-23T21:50:52.510Z,10.06
2023-03-23T21:53:19.541Z,10.00
2023-03-23T21:55:51.382Z,10.08
2023-03-23T21:58:24.355Z,10.19
2023-03-23T22:00:55.383Z,10.10
2023-03-23T22:03:24.315Z,10.09
2023-03-23T22:05:54.596Z,10.28
2023-03-23T22:08:26.404Z,10.25
2023-03-23T22:11:00.497Z,10.31
2023-03-23T22:13:32.233Z,10.21
2023-03-23T22:16:03.618Z,10.24
2023-03-23T22:18:33.087Z,10.17
2023-03-23T22:20:59.834Z,10.04
2023-03-23T22:23:27.020Z,10.04
2023-03-23T22:25:54.508Z,9.98
2023-03-23T22:28:21.270Z,10.05
2023-03-23T22:30:48.060Z,9.96
2023-03-23T22:33:17.653Z,9.89
2023-03-23T22:35:46.792Z,9.95
2023-03-23T22:38:15.087Z,9.71
2023-03-23T22:40:44.981Z,9.75
2023-03-23T22:43:11.817Z,9.83
2023-03-23T22:45:42.748Z,9.88
2023-03-23T22:48:09.746Z,9.74
2023-03-23T22:50:37.071Z,9.81
2023-03-23T22:53:03.673Z,9.76
2023-03-23T22:55:30.413Z,9.74
2023-03-23T22:57:57.129Z,9.89
2023-03-23T23:00:24.002Z,9.90
2023-03-23T23:02:52.150Z,9.76
2023-03-23T23:05:21.577Z,9.68
2023-03-23T23:07:48.278Z,9.75
2023-03-23T23:10:14.850Z,9.79
2023-03-23T23:12:42.563Z,9.77
2023-03-23T23:15:12.731Z,9.84
2023-03-23T23:17:39.264Z,9.84
2023-03-23T23:20:07.147Z,9.67
2023-03-23T23:22:34.060Z,9.72
2023-03-23T23:25:01.230Z,9.67
2023-03-23T23:27:27.913Z,9.64
2023-03-23T23:29:54.523Z,9.83
2023-03-23T23:32:23.199Z,9.64
2023-03-23T23:34:52.800Z,9.56
2023-03-23T23:37:19.584Z,9.73
2023-03-23T23:39:46.155Z,9.66
2023-03-23T23:42:13.019Z,9.50
2023-03-23T23:44:39.747Z,9.54
2023-03-23T23:47:06.482Z,9.49
2023-03-23T23:50:01.924Z,9.46
2023-03-23T23:52:30.781Z,9.45
2023-03-23T23:55:00.873Z,9.40
2023-03-23T23:57:46.966Z,9.36
